createdAt,value
2022-10-28T00:01:27.749Z,13.60
2022-10-28T00:03:57.236Z,14.00
2022-10-28T00:06:25.755Z,13.90
2022-10-28T00:08:56.658Z,13.90
2022-10-28T00:11:29.823Z,13.90
2022-10-28T00:13:59.138Z,13.90
2022-10-28T00:16:29.416Z,14.00
2022-10-28T00:18:58.752Z,13.90
2022-10-28T00:21:29.694Z,13.90
2022-10-28T00:23:56.796Z,13.80
2022-10-28T00:26:29.278Z,13.90
2022-10-28T00:29:05.184Z,13.80
2022-10-28T00:31:32.733Z,13.90
2022-10-28T00:34:02.680Z,13.90
2022-10-28T00:36:38.326Z,14.10
2022-10-28T00:39:14.122Z,14.10
2022-10-28T00:41:47.680Z,14.10
2022-10-28T00:44:48.590Z,14.20
2022-10-28T00:47:45.893Z,14.00
2022-10-28T00:50:33.796Z,14.00
2022-10-28T00:53:12.840Z,13.90
2022-10-28T00:55:39.775Z,13.90
2022-10-28T00:58:09.497Z,13.90
2022-10-28T01:03:17.857Z,13.70
2022-10-28T01:05:47.794Z,13.60
2022-10-28T01:08:14.787Z,13.70
2022-10-28T01:11:19.709Z,13.60
2022-10-28T01:14:45.775Z,13.40
2022-10-28T01:17:31.443Z,13.30
2022-10-28T01:20:36.177Z,13.30
2022-10-28T01:23:48.135Z,13.20
2022-10-28T01:27:09.613Z,13.10
2022-10-28T01:29:45.093Z,13.10
2022-10-28T01:32:52.876Z,13.10
2022-10-28T01:36:01.440Z,13.20
2022-10-28T01:42:05.816Z,13.10
2022-10-28T01:44:38.749Z,13.00
2022-10-28T01:47:14.648Z,13.10
2022-10-28T01:50:00.714Z,13.10
2022-10-28T01:58:28.879Z,12.90
2022-10-28T02:01:06.044Z,13.00
2022-10-28T02:03:32.925Z,12.60
2022-10-28T02:06:04.554Z,12.50
2022-10-28T02:09:03.161Z,12.40
2022-10-28T02:12:09.712Z,12.50
2022-10-28T02:15:04.448Z,12.50
2022-10-28T02:18:29.834Z,12.50
2022-10-28T02:21:06.293Z,12.50
2022-10-28T02:23:42.394Z,12.60
2022-10-28T02:26:23.458Z,12.50
2022-10-28T02:29:17.929Z,12.60
2022-10-28T02:31:57.374Z,12.80
2022-10-28T02:34:29.615Z,12.60
2022-10-28T02:36:59.541Z,12.50
2022-10-28T02:39:35.076Z,12.50
2022-10-28T02:42:13.112Z,12.30
2022-10-28T02:44:49.274Z,13.40
2022-10-28T02:47:23.408Z,12.50
2022-10-28T02:49:56.422Z,12.30
2022-10-28T02:52:29.418Z,12.60
2022-10-28T02:55:01.594Z,12.40
2022-10-28T02:57:34.169Z,12.40
2022-10-28T03:00:08.511Z,12.90
2022-10-28T03:02:35.461Z,12.20
2022-10-28T03:05:05.960Z,12.10
2022-10-28T03:07:35.396Z,12.10
2022-10-28T03:10:03.503Z,12.00
2022-10-28T03:12:33.498Z,11.90
2022-10-28T03:15:00.630Z,11.90
2022-10-28T03:17:48.452Z,11.90
2022-10-28T03:20:15.333Z,12.40
2022-10-28T03:22:52.162Z,11.90
2022-10-28T03:25:21.341Z,11.70
2022-10-28T03:27:50.687Z,11.60
2022-10-28T03:30:18.646Z,10.60
2022-10-28T03:32:45.642Z,11.20
2022-10-28T03:35:14.119Z,11.70
2022-10-28T03:38:04.342Z,11.60
2022-10-28T03:40:35.249Z,11.60
2022-10-28T03:43:07.752Z,11.50
2022-10-28T03:45:37.426Z,11.70
2022-10-28T03:48:04.742Z,11.40
2022-10-28T03:50:40.271Z,11.40
2022-10-28T03:53:09.203Z,11.60
2022-10-28T03:55:36.328Z,11.70
2022-10-28T03:58:03.604Z,11.90
2022-10-28T04:00:30.627Z,11.70
2022-10-28T04:03:01.071Z,11.90
2022-10-28T04:05:27.817Z,11.90
2022-10-28T04:07:55.518Z,12.20
2022-10-28T04:10:22.435Z,12.20
2022-10-28T04:12:53.080Z,12.00
2022-10-28T04:15:20.398Z,12.00
2022-10-28T04:17:48.884Z,11.90
2022-10-28T04:20:16.538Z,11.80
2022-10-28T04:22:43.351Z,11.70
2022-10-28T04:27:40.139Z,11.90
2022-10-28T04:30:07.539Z,11.60
2022-10-28T04:32:34.365Z,11.30
2022-10-28T04:35:01.074Z,11.30
2022-10-28T04:37:27.925Z,11.40
2022-10-28T04:39:55.894Z,12.30
2022-10-28T04:42:24.336Z,11.10
2022-10-28T04:44:54.127Z,11.30
2022-10-28T04:47:21.013Z,11.10
2022-10-28T04:49:49.268Z,11.10
2022-10-28T04:52:16.119Z,12.10
2022-10-28T04:54:42.979Z,11.10
2022-10-28T04:57:10.011Z,11.10
2022-10-28T04:59:37.476Z,11.10
2022-10-28T05:02:04.445Z,11.10
2022-10-28T05:04:31.314Z,11.30
2022-10-28T05:06:58.133Z,11.10
2022-10-28T05:09:24.967Z,11.70
2022-10-28T05:11:52.062Z,11.50
2022-10-28T05:14:18.872Z,11.40
2022-10-28T05:16:45.778Z,11.30
2022-10-28T05:19:12.598Z,11.50
2022-10-28T05:21:39.421Z,11.20
2022-10-28T05:24:06.661Z,11.20
2022-10-28T05:26:33.433Z,11.00
2022-10-28T05:29:00.131Z,11.00
2022-10-28T05:31:26.895Z,11.00
2022-10-28T05:33:53.887Z,11.00
2022-10-28T05:36:20.622Z,10.90
2022-10-28T05:38:47.391Z,11.10
2022-10-28T05:41:14.096Z,11.00
2022-10-28T05:43:40.921Z,10.80
2022-10-28T05:46:07.767Z,10.90
2022-10-28T05:48:34.642Z,10.80
2022-10-28T05:51:01.413Z,10.90
2022-10-28T05:53:28.501Z,10.80
2022-10-28T05:55:55.314Z,10.80
2022-10-28T05:58:22.086Z,10.80
2022-10-28T06:00:48.839Z,10.70
2022-10-28T06:03:15.659Z,10.60
2022-10-28T06:05:44.707Z,11.00
2022-10-28T06:08:14.922Z,10.70
2022-10-28T06:10:42.345Z,10.80
2022-10-28T06:13:08.165Z,12.30
2022-10-28T06:15:35.141Z,10.80
2022-10-28T06:18:01.967Z,10.90
2022-10-28T06:20:28.789Z,10.90
2022-10-28T06:22:56.201Z,10.80
2022-10-28T06:25:26.304Z,10.80
2022-10-28T06:28:01.670Z,11.00
2022-10-28T06:30:28.613Z,11.30
2022-10-28T06:32:55.683Z,10.80
2022-10-28T06:35:22.519Z,10.90
2022-10-28T06:37:54.788Z,11.10
2022-10-28T06:40:23.566Z,11.20
2022-10-28T06:43:03.102Z,11.10
2022-10-28T06:45:33.649Z,11.20
2022-10-28T06:48:06.138Z,11.40
2022-10-28T06:50:35.167Z,11.30
2022-10-28T06:53:02.469Z,11.60
2022-10-28T06:55:29.579Z,11.50
2022-10-28T06:58:01.245Z,11.80
2022-10-28T07:00:28.903Z,11.70
2022-10-28T07:03:00.030Z,11.80
2022-10-28T07:05:27.814Z,12.00
2022-10-28T07:07:55.307Z,12.30
2022-10-28T07:10:25.366Z,12.20
2022-10-28T07:13:12.559Z,12.20
2022-10-28T07:15:39.238Z,12.40
2022-10-28T07:18:06.267Z,12.50
2022-10-28T07:20:36.926Z,12.70
2022-10-28T07:23:03.772Z,12.50
2022-10-28T07:25:31.920Z,12.60
2022-10-28T07:27:59.453Z,12.70
2022-10-28T07:30:27.832Z,12.80
2022-10-28T07:32:55.734Z,12.90
2022-10-28T07:35:25.013Z,12.90
2022-10-28T07:37:51.742Z,13.00
2022-10-28T07:40:20.037Z,13.00
2022-10-28T07:42:47.071Z,13.00
2022-10-28T07:45:13.880Z,13.00
2022-10-28T07:47:40.922Z,13.00
2022-10-28T07:50:09.129Z,13.00
2022-10-28T07:52:36.835Z,13.10
2022-10-28T07:55:15.414Z,13.30
2022-10-28T07:57:42.465Z,13.40
2022-10-28T08:00:09.944Z,13.60
2022-10-28T08:02:36.814Z,13.80
2022-10-28T08:05:03.953Z,14.00
2022-10-28T08:07:34.783Z,14.20
2022-10-28T08:10:05.015Z,14.40
2022-10-28T08:12:31.795Z,14.60
2022-10-28T08:14:58.525Z,14.80
2022-10-28T08:17:25.353Z,15.00
2022-10-28T08:19:52.080Z,15.20
2022-10-28T08:22:18.887Z,15.40
2022-10-28T08:24:45.750Z,15.60
2022-10-28T08:27:12.611Z,15.80
2022-10-28T08:29:39.410Z,16.20
2022-10-28T08:32:09.509Z,16.70
2022-10-28T08:34:39.346Z,17.10
2022-10-28T08:37:09.635Z,17.40
2022-10-28T08:39:36.650Z,17.70
2022-10-28T08:42:29.305Z,17.90
2022-10-28T08:45:15.930Z,18.30
2022-10-28T08:47:56.240Z,18.60
2022-10-28T08:50:25.660Z,18.80
2022-10-28T08:53:14.480Z,19.10
2022-10-28T08:55:47.677Z,19.20
2022-10-28T08:58:26.020Z,19.40
2022-10-28T09:00:59.930Z,19.60
2022-10-28T09:03:49.224Z,19.70
2022-10-28T09:06:15.942Z,19.70
2022-10-28T09:08:46.855Z,19.90
2022-10-28T09:12:02.993Z,20.00
2022-10-28T09:14:48.354Z,20.10
2022-10-28T09:17:20.978Z,20.20
2022-10-28T09:19:53.159Z,20.30
2022-10-28T09:22:32.622Z,20.50
2022-10-28T09:25:09.164Z,20.60
2022-10-28T09:27:41.760Z,20.70
2022-10-28T09:30:34.786Z,20.70
2022-10-28T09:33:18.537Z,20.80
2022-10-28T09:35:47.965Z,20.80
2022-10-28T09:38:34.969Z,20.90
2022-10-28T09:41:07.053Z,21.00
2022-10-28T09:43:37.010Z,21.20
2022-10-28T09:46:13.209Z,21.50
2022-10-28T09:48:45.945Z,22.00
2022-10-28T09:51:29.051Z,22.70
2022-10-28T09:54:00.251Z,23.50
2022-10-28T09:56:28.636Z,23.90
2022-10-28T09:58:59.303Z,24.70
2022-10-28T10:01:28.555Z,25.80
2022-10-28T10:03:55.502Z,26.10
2022-10-28T10:06:38.954Z,26.50
2022-10-28T10:09:05.975Z,26.80
2022-10-28T10:11:38.995Z,27.70
2022-10-28T10:14:10.040Z,27.70
2022-10-28T10:16:45.755Z,27.50
2022-10-28T10:19:12.625Z,28.70
2022-10-28T10:21:51.249Z,28.50
2022-10-28T10:24:23.880Z,28.50
2022-10-28T10:26:52.494Z,29.00
2022-10-28T10:29:19.981Z,29.00
2022-10-28T10:31:48.353Z,28.90
2022-10-28T10:34:25.563Z,28.80
2022-10-28T10:36:56.221Z,28.50
2022-10-28T10:39:27.895Z,28.60
2022-10-28T10:41:58.369Z,29.10
2022-10-28T10:44:32.238Z,29.20
2022-10-28T10:47:06.274Z,29.70
2022-10-28T10:49:37.244Z,30.60
2022-10-28T10:52:16.995Z,29.60
2022-10-28T10:54:56.749Z,30.10
2022-10-28T10:57:25.293Z,30.80
2022-10-28T10:59:54.139Z,31.40
2022-10-28T11:02:39.900Z,30.40
2022-10-28T11:05:10.070Z,30.20
2022-10-28T11:07:40.605Z,29.90
2022-10-28T11:10:34.308Z,29.20
2022-10-28T11:13:23.844Z,27.80
2022-10-28T11:16:00.913Z,26.60
2022-10-28T11:18:29.286Z,26.70
2022-10-28T11:21:19.254Z,27.10
2022-10-28T11:24:12.225Z,27.70
2022-10-28T11:26:50.251Z,27.70
2022-10-28T11:29:17.735Z,27.20
2022-10-28T11:32:02.626Z,26.30
2022-10-28T11:35:09.516Z,26.20
2022-10-28T11:38:13.852Z,27.10
2022-10-28T11:41:34.919Z,27.70
2022-10-28T11:44:08.456Z,27.60
2022-10-28T11:46:50.341Z,28.10
2022-10-28T11:50:01.743Z,28.60
2022-10-28T11:53:06.581Z,28.90
2022-10-28T11:55:39.846Z,29.90
2022-10-28T11:58:19.847Z,30.60
2022-10-28T12:01:10.344Z,30.00
2022-10-28T12:04:08.926Z,29.90
2022-10-28T12:07:03.729Z,30.70
2022-10-28T12:10:06.166Z,31.30
2022-10-28T12:12:52.747Z,31.60
2022-10-28T12:15:39.228Z,31.70
2022-10-28T12:18:27.254Z,31.60
2022-10-28T12:21:20.273Z,31.30
2022-10-28T12:23:48.446Z,31.30
2022-10-28T12:26:18.088Z,30.70
2022-10-28T12:28:57.771Z,30.00
2022-10-28T12:31:28.886Z,29.50
2022-10-28T12:34:02.007Z,29.00
2022-10-28T12:36:34.910Z,28.30
2022-10-28T12:39:17.299Z,27.90
2022-10-28T12:41:50.315Z,27.70
2022-10-28T12:44:20.686Z,27.90
2022-10-28T12:47:17.269Z,27.40
2022-10-28T12:49:56.189Z,27.10
2022-10-28T12:52:42.193Z,26.90
2022-10-28T12:55:17.336Z,26.90
2022-10-28T12:58:09.848Z,26.60
2022-10-28T13:00:42.065Z,26.60
2022-10-28T13:03:13.701Z,27.00
2022-10-28T13:05:52.449Z,27.70
2022-10-28T13:08:41.336Z,28.10
2022-10-28T13:11:43.839Z,28.10
2022-10-28T13:14:24.680Z,28.30
2022-10-28T13:17:00.745Z,28.10
2022-10-28T13:19:48.084Z,27.90
2022-10-28T13:23:04.002Z,28.10
2022-10-28T13:26:08.506Z,28.20
2022-10-28T13:28:43.944Z,28.20
2022-10-28T13:31:11.327Z,27.80
2022-10-28T13:33:39.135Z,27.70
2022-10-28T13:36:12.006Z,27.70
2022-10-28T13:38:40.197Z,28.00
2022-10-28T13:41:06.859Z,27.90
2022-10-28T13:43:48.864Z,27.70
2022-10-28T13:46:53.302Z,27.80
2022-10-28T13:50:04.545Z,27.80
2022-10-28T13:52:32.300Z,27.70
2022-10-28T13:55:22.442Z,27.70
2022-10-28T13:57:52.554Z,27.80
2022-10-28T14:00:20.126Z,27.60
2022-10-28T14:02:48.197Z,27.60
2022-10-28T14:05:18.015Z,27.60
2022-10-28T14:08:00.189Z,27.50
2022-10-28T14:10:28.157Z,27.40
2022-10-28T14:13:00.230Z,27.30
2022-10-28T14:15:40.846Z,27.10
2022-10-28T14:18:43.595Z,26.70
2022-10-28T14:21:10.123Z,26.60
2022-10-28T14:23:39.882Z,26.40
2022-10-28T14:26:06.677Z,26.30
2022-10-28T14:28:33.413Z,26.20
2022-10-28T14:31:09.311Z,25.90
2022-10-28T14:33:36.846Z,25.70
2022-10-28T14:36:35.443Z,25.50
2022-10-28T14:39:14.052Z,25.10
2022-10-28T14:41:49.333Z,24.90
2022-10-28T14:44:25.017Z,24.70
2022-10-28T14:47:06.890Z,24.50
2022-10-28T14:49:36.753Z,24.20
2022-10-28T14:52:18.427Z,23.90
2022-10-28T14:54:55.564Z,23.70
2022-10-28T14:57:32.715Z,23.50
2022-10-28T15:00:08.852Z,23.30
2022-10-28T15:02:38.329Z,23.20
2022-10-28T15:05:18.082Z,23.20
2022-10-28T15:07:45.332Z,23.10
2022-10-28T15:10:28.667Z,23.00
2022-10-28T15:12:57.734Z,22.90
2022-10-28T15:15:30.524Z,22.90
2022-10-28T15:17:58.061Z,22.70
2022-10-28T15:20:30.822Z,22.70
2022-10-28T15:23:16.338Z,22.60
2022-10-28T15:25:43.338Z,22.50
2022-10-28T15:28:13.867Z,22.50
2022-10-28T15:30:46.380Z,22.40
2022-10-28T15:33:52.207Z,22.30
2022-10-28T15:36:24.588Z,22.10
2022-10-28T15:38:51.986Z,22.00
2022-10-28T15:41:21.735Z,21.90
2022-10-28T15:44:02.678Z,21.80
2022-10-28T15:46:32.270Z,21.70
2022-10-28T15:49:01.393Z,21.60
2022-10-28T15:51:28.862Z,21.50
2022-10-28T15:54:10.990Z,21.40
2022-10-28T15:56:58.157Z,21.30
2022-10-28T15:59:26.347Z,21.30
2022-10-28T16:01:58.641Z,21.20
2022-10-28T16:04:25.378Z,21.00
2022-10-28T16:06:57.230Z,20.90
2022-10-28T16:09:36.860Z,20.80
2022-10-28T16:12:26.462Z,20.60
2022-10-28T16:15:02.422Z,20.50
2022-10-28T16:17:33.467Z,20.40
2022-10-28T16:20:04.583Z,20.30
2022-10-28T16:22:34.700Z,20.20
2022-10-28T16:25:01.657Z,20.10
2022-10-28T16:27:31.503Z,20.10
2022-10-28T16:29:58.596Z,20.10
2022-10-28T16:32:33.957Z,20.10
2022-10-28T16:35:02.234Z,20.10
2022-10-28T16:37:31.553Z,20.20
2022-10-28T16:39:58.555Z,20.10
2022-10-28T16:42:25.853Z,20.00
2022-10-28T16:44:52.928Z,20.00
2022-10-28T16:47:21.811Z,20.20
2022-10-28T16:49:52.572Z,19.90
2022-10-28T16:52:28.053Z,20.00
2022-10-28T16:54:55.272Z,20.00
2022-10-28T16:59:54.700Z,20.20
2022-10-28T17:02:35.909Z,20.30
2022-10-28T17:05:07.356Z,20.10
2022-10-28T17:07:34.148Z,20.20
2022-10-28T17:10:00.893Z,20.20
2022-10-28T17:12:27.976Z,20.10
2022-10-28T17:14:54.688Z,20.00
2022-10-28T17:17:21.436Z,20.00
2022-10-28T17:19:48.210Z,20.00
2022-10-28T17:22:14.985Z,20.00
2022-10-28T17:24:41.821Z,20.00
2022-10-28T17:27:08.590Z,20.00
2022-10-28T17:29:35.420Z,20.00
2022-10-28T17:32:02.521Z,20.00
2022-10-28T17:34:29.389Z,19.80
2022-10-28T17:36:56.222Z,19.90
2022-10-28T17:39:26.098Z,19.90
2022-10-28T17:41:53.475Z,20.00
2022-10-28T17:44:20.452Z,20.20
2022-10-28T17:46:51.248Z,20.10
2022-10-28T17:49:18.488Z,20.00
2022-10-28T17:51:45.480Z,20.00
2022-10-28T17:54:12.406Z,20.10
2022-10-28T17:56:41.843Z,20.00
2022-10-28T17:59:08.750Z,20.00
2022-10-28T18:01:35.889Z,20.10
2022-10-28T18:04:03.812Z,20.10
2022-10-28T18:06:30.528Z,19.80
2022-10-28T18:08:58.335Z,19.70
2022-10-28T18:11:26.567Z,19.60
2022-10-28T18:13:55.882Z,19.70
2022-10-28T18:16:25.314Z,19.60
2022-10-28T18:18:53.424Z,19.70
2022-10-28T18:21:20.579Z,19.60
2022-10-28T18:23:52.796Z,19.50
2022-10-28T18:26:19.861Z,19.50
2022-10-28T18:28:47.078Z,19.50
2022-10-28T18:31:19.342Z,19.40
2022-10-28T18:33:47.273Z,19.30
2022-10-28T18:36:16.590Z,19.50
2022-10-28T18:38:43.958Z,19.20
2022-10-28T18:41:16.602Z,19.30
2022-10-28T18:43:43.649Z,19.10
2022-10-28T18:46:10.728Z,19.20
2022-10-28T18:48:37.624Z,19.00
2022-10-28T18:51:07.881Z,18.90
2022-10-28T18:53:37.142Z,18.90
2022-10-28T18:56:10.342Z,19.40
2022-10-28T18:58:37.304Z,18.90
2022-10-28T19:01:17.840Z,18.90
2022-10-28T19:03:44.933Z,18.80
2022-10-28T19:06:14.783Z,18.70
2022-10-28T19:08:42.063Z,18.50
2022-10-28T19:11:10.925Z,18.60
2022-10-28T19:13:39.558Z,18.60
2022-10-28T19:16:07.232Z,18.50
2022-10-28T19:18:36.581Z,18.60
2022-10-28T19:21:04.420Z,18.60
2022-10-28T19:23:32.525Z,19.00
2022-10-28T19:25:59.946Z,18.50
2022-10-28T19:28:27.096Z,18.40
2022-10-28T19:31:04.963Z,16.10
2022-10-28T19:33:32.859Z,18.20
2022-10-28T19:36:05.601Z,18.20
2022-10-28T19:38:34.781Z,18.10
2022-10-28T19:41:15.673Z,18.00
2022-10-28T19:43:43.502Z,17.90
2022-10-28T19:46:20.366Z,17.80
2022-10-28T19:48:52.599Z,17.70
2022-10-28T19:51:24.890Z,17.60
2022-10-28T19:53:54.281Z,17.50
2022-10-28T19:56:21.412Z,17.70
2022-10-28T19:58:52.024Z,17.40
2022-10-28T20:01:19.755Z,17.30
2022-10-28T20:03:49.376Z,17.20
2022-10-28T20:06:17.858Z,17.00
2022-10-28T20:08:49.315Z,16.90
2022-10-28T20:11:24.706Z,16.90
2022-10-28T20:13:55.068Z,16.90
2022-10-28T20:16:22.862Z,16.90
2022-10-28T20:18:50.297Z,16.80
2022-10-28T20:21:19.733Z,16.70
2022-10-28T20:23:53.773Z,16.60
2022-10-28T20:26:22.899Z,16.60
2022-10-28T20:28:50.601Z,16.50
2022-10-28T20:31:20.975Z,16.50
2022-10-28T20:33:53.248Z,16.50
2022-10-28T20:36:48.589Z,16.50
2022-10-28T20:39:17.679Z,16.50
2022-10-28T20:41:46.748Z,16.50
2022-10-28T20:44:13.774Z,16.50
2022-10-28T20:46:40.984Z,16.60
2022-10-28T20:49:08.887Z,16.50
2022-10-28T20:51:36.601Z,16.60
2022-10-28T20:54:03.507Z,16.60
2022-10-28T20:56:33.321Z,16.60
2022-10-28T20:59:00.477Z,16.60
2022-10-28T21:01:30.463Z,16.60
2022-10-28T21:04:03.302Z,16.60
2022-10-28T21:06:30.447Z,16.60
2022-10-28T21:08:57.730Z,16.60
2022-10-28T21:11:26.137Z,16.60
2022-10-28T21:13:55.587Z,16.60
2022-10-28T21:16:23.155Z,16.60
2022-10-28T21:18:50.947Z,16.60
2022-10-28T21:21:19.642Z,16.60
2022-10-28T21:23:46.477Z,17.80
2022-10-28T21:26:13.594Z,16.70
2022-10-28T21:28:43.492Z,16.60
2022-10-28T21:31:16.157Z,16.50
2022-10-28T21:33:43.772Z,16.40
2022-10-28T21:36:13.552Z,16.70
2022-10-28T21:38:40.620Z,16.40
2022-10-28T21:41:11.019Z,16.40
2022-10-28T21:43:40.697Z,16.40
2022-10-28T21:46:07.757Z,16.30
2022-10-28T21:48:36.281Z,16.20
2022-10-28T21:51:09.867Z,16.10
2022-10-28T21:53:40.566Z,16.00
2022-10-28T21:56:17.092Z,16.00
2022-10-28T21:58:45.961Z,16.00
2022-10-28T22:01:15.378Z,15.90
2022-10-28T22:03:42.147Z,15.90
2022-10-28T22:06:09.250Z,15.90
2022-10-28T22:08:36.290Z,15.80
2022-10-28T22:11:06.523Z,15.80
2022-10-28T22:13:34.368Z,15.70
2022-10-28T22:16:04.651Z,15.60
2022-10-28T22:18:33.795Z,15.50
2022-10-28T22:21:06.036Z,15.40
2022-10-28T22:23:32.912Z,15.40
2022-10-28T22:26:07.952Z,15.40
2022-10-28T22:28:34.949Z,15.40
2022-10-28T22:31:03.646Z,15.40
2022-10-28T22:33:30.636Z,15.50
2022-10-28T22:36:14.340Z,15.50
2022-10-28T22:38:41.645Z,15.60
2022-10-28T22:41:08.308Z,15.50
2022-10-28T22:43:35.195Z,15.60
2022-10-28T22:46:02.196Z,15.60
2022-10-28T22:48:29.857Z,15.60
2022-10-28T22:50:57.415Z,15.60
2022-10-28T22:53:24.582Z,15.60
2022-10-28T22:55:52.925Z,15.50
2022-10-28T22:58:19.924Z,15.40
2022-10-28T23:00:46.766Z,15.30
2022-10-28T23:03:13.545Z,16.30
2022-10-28T23:05:40.746Z,15.00
2022-10-28T23:08:08.067Z,14.90
2022-10-28T23:10:34.948Z,14.80
2022-10-28T23:13:02.697Z,14.70
2022-10-28T23:15:30.091Z,14.60
2022-10-28T23:17:57.132Z,14.60
2022-10-28T23:20:25.232Z,14.60
2022-10-28T23:22:55.712Z,14.70
2022-10-28T23:25:22.493Z,14.80
2022-10-28T23:27:49.197Z,14.80
2022-10-28T23:30:16.022Z,14.90
2022-10-28T23:32:42.862Z,17.30
2022-10-28T23:35:09.838Z,15.10
2022-10-28T23:37:36.795Z,15.20
2022-10-28T23:40:04.010Z,15.20
2022-10-28T23:42:30.797Z,15.30
2022-10-28T23:44:57.537Z,15.40
2022-10-28T23:47:24.232Z,15.30
2022-10-28T23:49:51.003Z,15.30
2022-10-28T23:52:17.721Z,15.20
2022-10-28T23:54:44.474Z,15.20
2022-10-28T23:57:11.411Z,15.20
2022-10-28T23:59:38.141Z,15.20
